Time;durP1;ratioP1;P1;durP2;ratioP2;P2;SDS_P1;SDS_P2;PMS_P1;PMS_P2;Temp;Humidity;BMP_temperature;BMP_pressure;BME280_temperature;BME280_humidity;BME280_pressure;Samples;Min_cycle;Max_cycle;Signal;HPM_P1;HPM_P2
2022/03/14 00:01:29;;;;;;;3.40;3.10;;;;;;;11.73;59.77;101521.88;5089669;28;20019;-74
2022/03/14 00:03:55;;;;;;;3.70;3.50;;;;;;;11.75;59.56;101520.84;5097543;28;20034;-74
2022/03/14 00:06:20;;;;;;;3.85;3.15;;;;;;;11.73;59.58;101522.75;5054853;28;20471;-74
2022/03/14 00:08:47;;;;;;;3.60;3.40;;;;;;;11.69;59.54;101525.69;5101680;28;20048;-74
2022/03/14 00:11:17;;;;;;;4.05;3.15;;;;;;;11.68;59.71;101523.97;5095792;28;20387;-74
2022/03/14 00:13:46;;;;;;;3.70;3.40;;;;;;;11.70;59.77;101528.25;5093981;28;20034;-74
2022/03/14 00:16:16;;;;;;;3.70;3.40;;;;;;;11.63;59.90;101528.69;5111349;28;20024;-74
2022/03/14 00:18:42;;;;;;;3.63;3.42;;;;;;;11.59;60.22;101538.69;5098579;28;20210;-74
2022/03/14 00:21:10;;;;;;;3.50;3.28;;;;;;;11.62;60.04;101546.50;5075489;28;20070;-74
2022/03/14 00:23:38;;;;;;;3.97;3.60;;;;;;;11.62;59.99;101542.94;5059072;28;20124;-74
2022/03/14 00:26:07;;;;;;;4.07;3.75;;;;;;;11.55;60.06;101539.78;5105653;28;20107;-74
2022/03/14 00:28:32;;;;;;;4.97;3.67;;;;;;;11.64;59.96;101549.06;5081406;28;20024;-74
2022/03/14 00:30:58;;;;;;;3.95;3.65;;;;;;;11.63;60.27;101547.34;5085727;28;20114;-74
2022/03/14 00:33:24;;;;;;;4.10;3.80;;;;;;;11.53;60.77;101555.88;5065461;28;20056;-74
2022/03/14 00:35:55;;;;;;;3.92;3.63;;;;;;;11.60;60.86;101557.22;5075226;28;20481;-74
2022/03/14 00:38:20;;;;;;;3.78;3.47;;;;;;;11.65;60.06;101564.97;5095364;28;20110;-74
2022/03/14 00:40:46;;;;;;;3.80;3.50;;;;;;;11.69;60.28;101565.66;5078813;28;20106;-74
2022/03/14 00:43:12;;;;;;;4.07;3.70;;;;;;;11.65;60.14;101569.41;5060672;28;20034;-74
2022/03/14 00:45:37;;;;;;;3.80;3.50;;;;;;;11.62;60.26;101572.25;5068099;28;20372;-74
2022/03/14 00:48:03;;;;;;;4.40;4.10;;;;;;;11.64;60.60;101576.56;5086033;28;20039;-74
2022/03/14 00:50:32;;;;;;;4.18;3.88;;;;;;;11.61;60.54;101587.38;5090816;28;20449;-74
2022/03/14 00:52:57;;;;;;;4.03;3.70;;;;;;;11.58;60.99;101576.91;5077185;28;20388;-74
2022/03/14 00:55:22;;;;;;;4.47;4.18;;;;;;;11.56;61.39;101585.00;5076233;28;20096;-75
2022/03/14 00:57:48;;;;;;;4.45;4.07;;;;;;;11.52;61.55;101586.09;5110808;28;20031;-74
2022/03/14 01:00:14;;;;;;;4.45;4.05;;;;;;;11.46;62.33;101590.91;5089805;28;20083;-74
2022/03/14 01:02:40;;;;;;;4.35;3.95;;;;;;;11.43;62.34;101593.75;5105016;28;20111;-74
2022/03/14 01:05:06;;;;;;;4.38;4.07;;;;;;;11.49;62.18;101596.91;5081653;28;20036;-74
2022/03/14 01:07:34;;;;;;;4.53;4.07;;;;;;;11.46;62.54;101590.91;5041849;28;20078;-74
2022/03/14 01:10:01;;;;;;;4.53;4.13;;;;;;;11.40;62.82;101593.91;5098035;28;20092;-74
2022/03/14 01:12:26;;;;;;;4.68;4.28;;;;;;;11.37;63.04;101606.44;5094021;28;20028;-74
2022/03/14 01:14:52;;;;;;;4.53;4.20;;;;;;;11.41;62.47;101607.13;5094405;28;20028;-74
2022/03/14 01:17:18;;;;;;;4.47;4.10;;;;;;;11.36;62.79;101598.56;5062006;28;20509;-74
2022/03/14 01:19:43;;;;;;;4.32;3.92;;;;;;;11.42;62.51;101603.53;5093517;28;20024;-74
2022/03/14 01:22:10;;;;;;;4.28;3.97;;;;;;;11.38;63.09;101601.97;5110050;28;20035;-74
2022/03/14 01:24:39;;;;;;;4.70;4.40;;;;;;;11.33;63.18;101609.38;5101647;28;20055;-74
2022/03/14 01:27:08;;;;;;;5.00;4.60;;;;;;;11.34;63.10;101613.75;5092923;28;20032;-74
2022/03/14 01:29:38;;;;;;;4.60;4.20;;;;;;;11.33;63.60;101628.00;5099366;28;20024;-74
2022/03/14 01:32:03;;;;;;;;;;;;;;;11.47;61.64;101619.25;5094710;28;20860;-74
2022/03/14 01:34:29;;;;;;;5.10;4.60;;;;;;;11.28;63.44;101616.75;5079399;28;19962;-74
2022/03/14 01:36:55;;;;;;;5.13;4.63;;;;;;;11.20;63.71;101614.47;5073738;28;20520;-74
2022/03/14 01:39:21;;;;;;;5.20;4.70;;;;;;;11.21;64.01;101626.88;5076176;28;20058;-74
2022/03/14 01:41:46;;;;;;;4.93;4.63;;;;;;;11.18;63.82;101615.50;5093291;28;20040;-74
2022/03/14 01:44:12;;;;;;;4.78;4.18;;;;;;;11.16;64.02;101622.72;5092572;28;20035;-74
2022/03/14 01:46:37;;;;;;;4.60;4.20;;;;;;;11.11;64.10;101626.47;5098241;28;20023;-74
2022/03/14 01:49:05;;;;;;;5.38;4.88;;;;;;;11.12;64.45;101630.03;5107552;28;20492;-74
2022/03/14 01:51:34;;;;;;;5.13;4.72;;;;;;;11.17;64.19;101629.75;5092585;28;20582;-74
2022/03/14 01:53:59;;;;;;;4.93;4.53;;;;;;;11.16;64.35;101630.72;5073683;28;20432;-74
2022/03/14 01:56:28;;;;;;;5.32;4.88;;;;;;;11.17;64.32;101637.75;5073615;28;20126;-74
2022/03/14 01:58:55;;;;;;;4.67;4.27;;;;;;;11.17;63.94;101637.75;5082243;28;20030;-74
2022/03/14 02:01:20;;;;;;;5.28;4.88;;;;;;;11.10;64.46;101643.41;5090567;28;20012;-74
2022/03/14 02:03:49;;;;;;;4.60;4.20;;;;;;;11.09;64.33;101649.69;5093289;28;20028;-74
2022/03/14 02:06:15;;;;;;;4.88;4.47;;;;;;;11.04;64.85;101642.88;5064692;28;20032;-74
2022/03/14 02:08:41;;;;;;;5.40;4.90;;;;;;;11.07;64.60;101651.53;5075676;28;20044;-74
2022/03/14 02:11:07;;;;;;;5.03;4.55;;;;;;;11.10;64.76;101650.53;5094524;28;20485;-74
2022/03/14 02:13:35;;;;;;;5.90;4.90;;;;;;;11.05;65.05;101647.25;5085893;28;20051;-74
2022/03/14 02:16:01;;;;;;;5.30;4.80;;;;;;;11.07;64.74;101653.34;5111083;28;20553;-74
2022/03/14 02:18:26;;;;;;;5.25;4.80;;;;;;;11.07;64.82;101661.34;5097932;28;20126;-74
2022/03/14 02:20:52;;;;;;;6.05;5.40;;;;;;;10.95;65.46;101660.19;5089619;28;20383;-74
2022/03/14 02:23:20;;;;;;;5.88;5.38;;;;;;;11.03;65.60;101673.94;5107440;28;20077;-74
2022/03/14 02:25:50;;;;;;;5.75;4.90;;;;;;;10.98;65.43;101672.47;5079034;28;20042;-74
2022/03/14 02:28:22;;;;;;;5.38;4.97;;;;;;;10.99;65.78;101672.38;5093054;28;20068;-74
2022/03/14 02:30:50;;;;;;;5.47;5.00;;;;;;;11.02;65.39;101679.34;5107850;28;20019;-74
2022/03/14 02:33:17;;;;;;;5.65;5.15;;;;;;;11.01;65.46;101670.50;5077619;28;20027;-74
2022/03/14 02:35:46;;;;;;;5.28;4.85;;;;;;;10.94;65.76;101666.41;5094672;28;20031;-74
2022/03/14 02:38:14;;;;;;;5.47;4.97;;;;;;;10.91;65.58;101682.53;5088838;28;20027;-74
2022/03/14 02:40:46;;;;;;;5.35;4.95;;;;;;;10.90;65.81;101673.69;5102653;28;20102;-74
2022/03/14 02:43:20;;;;;;;5.60;5.10;;;;;;;10.88;66.12;101680.03;5065425;28;20282;-74
2022/03/14 02:45:48;;;;;;;4.97;4.57;;;;;;;10.85;66.00;101682.84;5100618;28;20122;-74
2022/03/14 02:48:14;;;;;;;5.40;4.90;;;;;;;10.81;66.25;101675.97;5099181;28;20398;-74
2022/03/14 02:50:42;;;;;;;5.75;5.25;;;;;;;10.84;66.16;101684.66;5098881;28;20036;-74
2022/03/14 02:53:12;;;;;;;5.13;4.72;;;;;;;10.84;66.56;101686.47;5097118;28;20102;-74
2022/03/14 02:55:41;;;;;;;5.88;5.35;;;;;;;10.80;66.44;101704.41;5110602;28;20088;-74
2022/03/14 02:58:07;;;;;;;5.22;4.82;;;;;;;10.84;66.58;101702.44;5109047;28;20024;-74
2022/03/14 03:00:35;;;;;;;5.03;4.63;;;;;;;10.78;66.50;101708.06;5103001;28;20073;-74
2022/03/14 03:03:05;;;;;;;5.15;4.75;;;;;;;10.78;66.71;101716.06;5106983;28;20019;-74
2022/03/14 03:05:31;;;;;;;5.38;4.88;;;;;;;10.80;66.38;101716.84;5084482;28;20032;-74
2022/03/14 03:08:04;;;;;;;5.28;4.88;;;;;;;10.75;66.66;101730.38;5078913;28;20511;-74
2022/03/14 03:10:31;;;;;;;5.43;4.85;;;;;;;10.82;66.08;101728.25;5089783;28;20035;-74
2022/03/14 03:12:58;;;;;;;5.18;4.75;;;;;;;10.78;66.50;101740.84;5095875;28;20027;-74
2022/03/14 03:15:25;;;;;;;5.00;4.60;;;;;;;10.72;66.63;101738.50;5076595;28;20032;-74
2022/03/14 03:17:51;;;;;;;5.15;4.65;;;;;;;10.66;66.36;101741.47;5078821;28;20035;-74
2022/03/14 03:20:16;;;;;;;5.30;4.90;;;;;;;10.75;66.78;101756.97;5076976;28;20043;-74
2022/03/14 03:22:44;;;;;;;5.15;4.75;;;;;;;10.65;67.37;101751.25;5111609;28;20032;-74
2022/03/14 03:25:10;;;;;;;5.13;4.72;;;;;;;10.68;67.73;101758.22;5093177;28;20497;-74
2022/03/14 03:27:36;;;;;;;5.13;4.72;;;;;;;10.69;67.57;101763.47;5084558;28;20108;-74
2022/03/14 03:30:03;;;;;;;5.18;4.70;;;;;;;10.54;68.88;101774.00;5104072;28;20024;-74
2022/03/14 03:32:29;;;;;;;5.65;5.15;;;;;;;10.53;69.60;101785.53;5090340;28;20031;-74
2022/03/14 03:34:54;;;;;;;5.38;4.97;;;;;;;10.46;70.04;101798.28;5076858;28;20024;-74
2022/03/14 03:37:20;;;;;;;4.97;4.57;;;;;;;10.42;69.92;101791.41;5103471;28;20363;-74
2022/03/14 03:39:45;;;;;;;5.90;5.40;;;;;;;10.43;69.74;101801.09;5113983;28;20120;-74
2022/03/14 03:42:11;;;;;;;5.75;4.97;;;;;;;10.55;68.56;101807.63;5085293;28;20031;-74
2022/03/14 03:44:36;;;;;;;6.18;5.68;;;;;;;10.31;69.69;101815.81;5075904;28;20028;-74
2022/03/14 03:47:05;;;;;;;6.28;5.78;;;;;;;10.21;70.20;101812.69;5092693;28;20027;-74
2022/03/14 03:49:32;;;;;;;5.40;4.93;;;;;;;10.28;69.84;101823.94;5094379;28;20126;-73
2022/03/14 03:51:57;;;;;;;6.20;5.60;;;;;;;10.17;70.64;101829.69;5098052;28;20368;-74
2022/03/14 03:54:23;;;;;;;6.38;5.78;;;;;;;10.16;71.10;101828.00;5085986;28;20093;-74
2022/03/14 03:56:48;;;;;;;6.82;6.20;;;;;;;10.03;71.22;101826.84;5100674;28;20363;-74
2022/03/14 03:59:15;;;;;;;6.65;5.93;;;;;;;9.95;72.35;101828.97;5105275;28;20028;-74
2022/03/14 04:01:41;;;;;;;6.80;6.15;;;;;;;9.94;72.49;101837.84;5098446;28;20471;-74
2022/03/14 04:04:07;;;;;;;7.22;6.57;;;;;;;9.99;72.08;101852.66;5099892;28;20035;-74
2022/03/14 04:06:34;;;;;;;7.50;6.80;;;;;;;9.94;72.37;101854.69;5105674;28;20198;-74
2022/03/14 04:09:04;;;;;;;7.78;6.25;;;;;;;9.89;72.71;101846.03;5110442;28;20051;-74
2022/03/14 04:11:29;;;;;;;6.10;5.53;;;;;;;9.86;73.24;101854.16;5097376;28;20023;-74
2022/03/14 04:13:58;;;;;;;7.22;6.53;;;;;;;9.80;73.98;101858.88;5112866;28;20035;-74
2022/03/14 04:16:26;;;;;;;6.95;6.25;;;;;;;9.76;73.97;101861.66;5098833;28;20038;-74
2022/03/14 04:18:52;;;;;;;6.40;5.90;;;;;;;9.82;74.13;101870.28;5093006;28;20023;-74
2022/03/14 04:21:18;;;;;;;7.20;6.47;;;;;;;9.79;74.89;101876.59;5096549;28;20043;-74
2022/03/14 04:23:44;;;;;;;7.35;6.43;;;;;;;9.81;74.60;101876.53;5089005;28;20066;-74
2022/03/14 04:26:09;;;;;;;7.10;6.50;;;;;;;9.80;74.47;101880.13;5093798;28;20450;-74
2022/03/14 04:28:36;;;;;;;7.95;7.13;;;;;;;9.78;74.48;101886.34;5074928;28;20047;-74
2022/03/14 04:31:06;;;;;;;7.85;6.97;;;;;;;9.77;74.74;101886.44;5091151;28;20028;-74
2022/03/14 04:33:32;;;;;;;8.18;7.30;;;;;;;9.70;74.74;101893.78;5101012;28;20035;-74
2022/03/14 04:35:58;;;;;;;10.32;7.28;;;;;;;9.73;74.48;101895.44;5103134;28;20016;-74
2022/03/14 04:38:30;;;;;;;8.30;7.38;;;;;;;9.75;74.48;101906.88;5106306;28;20379;-74
2022/03/14 04:40:58;;;;;;;8.43;7.72;;;;;;;9.75;74.84;101904.22;5091815;28;20053;-74
2022/03/14 04:43:24;;;;;;;9.40;8.50;;;;;;;9.69;74.69;101905.34;5094969;28;20096;-74
2022/03/14 04:45:51;;;;;;;10.18;7.47;;;;;;;9.62;74.62;101903.00;5073866;28;20032;-74
2022/03/14 04:48:17;;;;;;;8.73;7.93;;;;;;;9.61;74.56;101909.25;5076691;28;20057;-74
2022/03/14 04:50:43;;;;;;;8.80;7.68;;;;;;;9.59;74.76;101906.69;5084764;28;20036;-74
2022/03/14 04:53:09;;;;;;;9.05;8.02;;;;;;;9.55;74.93;101910.38;5111997;28;20548;-74
2022/03/14 04:55:36;;;;;;;8.55;7.75;;;;;;;9.55;74.76;101916.53;5094960;28;20065;-74
2022/03/14 04:58:05;;;;;;;9.20;8.10;;;;;;;9.50;74.42;101910.59;5076368;28;20024;-74
2022/03/14 05:00:32;;;;;;;9.90;8.90;;;;;;;9.57;74.39;101931.56;5108315;28;20470;-74
2022/03/14 05:03:05;;;;;;;8.95;8.15;;;;;;;9.60;74.61;101931.44;5110260;28;20102;-74
2022/03/14 05:05:31;;;;;;;8.77;7.97;;;;;;;9.50;74.80;101942.44;5099587;28;20020;-74
2022/03/14 05:07:57;;;;;;;9.90;8.90;;;;;;;9.52;74.71;101953.00;5068221;28;1240952;-74
2022/03/14 05:10:23;;;;;;;10.68;8.82;;;;;;;9.47;74.68;101954.97;5112316;28;20034;-75
2022/03/14 05:12:49;;;;;;;9.05;7.97;;;;;;;9.52;74.53;101964.47;5112986;28;20024;-74
2022/03/14 05:15:18;;;;;;;9.85;8.82;;;;;;;9.42;74.71;101967.59;5099848;28;20046;-74
2022/03/14 05:17:50;;;;;;;9.55;8.57;;;;;;;9.36;75.21;101970.50;5085505;28;20032;-74
2022/03/14 05:20:16;;;;;;;10.60;9.50;;;;;;;9.42;74.53;101970.25;5078058;28;20023;-74
2022/03/14 05:22:49;;;;;;;12.60;10.23;;;;;;;9.46;74.48;101971.84;5084969;28;20116;-74
2022/03/14 05:25:22;;;;;;;15.70;10.18;;;;;;;9.39;74.80;101980.97;5110160;28;20029;-74
2022/03/14 05:27:48;;;;;;;13.63;11.27;;;;;;;9.30;75.17;101979.56;5106382;28;20020;-74
2022/03/14 05:30:16;;;;;;;12.43;11.13;;;;;;;9.36;75.16;101983.75;5107294;28;20039;-74
2022/03/14 05:32:42;;;;;;;16.98;11.85;;;;;;;9.29;75.45;101988.44;5078881;28;20049;-74
2022/03/14 05:35:11;;;;;;;16.92;11.63;;;;;;;9.37;74.91;101998.75;5092914;28;20379;-74
2022/03/14 05:37:39;;;;;;;13.48;12.18;;;;;;;9.28;75.14;101984.91;5073538;28;20106;-74
2022/03/14 05:40:08;;;;;;;13.30;11.95;;;;;;;9.33;75.30;102008.63;5095917;28;20012;-74
2022/03/14 05:42:33;;;;;;;14.50;12.50;;;;;;;9.29;75.03;101993.72;5094811;28;20020;-74
2022/03/14 05:44:59;;;;;;;17.27;12.60;;;;;;;9.32;74.96;102010.44;5091470;28;20445;-74
2022/03/14 05:47:25;;;;;;;16.48;13.05;;;;;;;9.37;75.06;102014.69;5080986;28;20389;-74
2022/03/14 05:49:50;;;;;;;15.20;13.05;;;;;;;9.32;75.36;102023.72;5074683;28;20027;-74
2022/03/14 05:52:17;;;;;;;15.82;13.27;;;;;;;9.37;74.79;102018.19;5075426;28;20024;-74
2022/03/14 05:54:42;;;;;;;18.20;12.88;;;;;;;9.35;75.42;102027.16;5089813;28;20034;-74
2022/03/14 05:57:08;;;;;;;15.40;13.05;;;;;;;9.36;75.23;102031.56;5061095;28;20027;-74
2022/03/14 05:59:34;;;;;;;16.92;13.13;;;;;;;9.38;75.17;102033.19;5057236;28;20388;-74
2022/03/14 06:01:59;;;;;;;14.23;12.43;;;;;;;9.41;75.33;102035.75;5105775;28;20118;-74
2022/03/14 06:04:26;;;;;;;18.23;12.98;;;;;;;9.37;75.36;102041.22;5105476;28;20534;-74
2022/03/14 06:06:51;;;;;;;19.42;13.27;;;;;;;9.20;75.12;102008.22;5104309;28;20035;-74
2022/03/14 06:09:17;;;;;;;18.83;13.07;;;;;;;9.48;74.78;102047.84;5082970;28;20406;-74
2022/03/14 06:11:42;;;;;;;16.60;13.05;;;;;;;9.43;75.09;102052.47;5064254;28;20025;-74
2022/03/14 06:14:08;;;;;;;15.98;13.88;;;;;;;9.40;75.20;102065.88;5068481;28;20036;-74
2022/03/14 06:16:34;;;;;;;16.13;13.55;;;;;;;9.38;75.17;102061.53;5072831;28;20567;-74
2022/03/14 06:19:00;;;;;;;15.93;13.75;;;;;;;9.38;75.19;102064.19;5071702;28;20514;-74
2022/03/14 06:21:29;;;;;;;17.63;15.02;;;;;;;9.42;75.02;102068.47;5070887;28;20016;-74
2022/03/14 06:23:54;;;;;;;18.88;14.40;;;;;;;9.43;75.50;102070.22;5087857;28;20055;-74
2022/03/14 06:26:20;;;;;;;19.77;15.02;;;;;;;9.47;75.26;102074.47;5072007;28;20075;-74
2022/03/14 06:28:47;;;;;;;19.60;14.85;;;;;;;9.46;75.51;102086.00;5087373;28;20023;-74
2022/03/14 06:31:14;;;;;;;17.45;15.02;;;;;;;9.46;75.18;102091.31;5075094;28;20085;-74
2022/03/14 06:33:40;;;;;;;21.30;14.95;;;;;;;9.43;75.54;102096.75;5069795;28;20052;-74
2022/03/14 06:36:05;;;;;;;17.90;16.00;;;;;;;9.42;75.17;102100.34;5070883;28;20035;-74
2022/03/14 06:38:32;;;;;;;22.20;16.33;;;;;;;9.43;75.59;102097.63;5073878;28;20028;-74
2022/03/14 06:40:59;;;;;;;20.80;16.88;;;;;;;9.47;75.42;102101.00;5090295;28;20413;-74
2022/03/14 06:43:24;;;;;;;19.33;16.42;;;;;;;9.47;76.20;102101.91;5072227;28;20024;-75
2022/03/14 06:45:50;;;;;;;18.30;16.38;;;;;;;9.53;76.24;102109.63;5069004;28;20032;-74
2022/03/14 06:48:16;;;;;;;24.63;16.55;;;;;;;9.58;76.45;102108.59;5072024;28;20461;-74
2022/03/14 06:50:41;;;;;;;20.33;16.40;;;;;;;9.60;75.66;102112.91;5070411;28;20037;-74
2022/03/14 06:53:07;;;;;;;21.05;15.70;;;;;;;9.52;75.06;102109.69;5069652;28;20036;-74
2022/03/14 06:55:33;;;;;;;20.05;17.05;;;;;;;9.44;75.27;102112.66;5089775;28;20110;-74
2022/03/14 06:57:59;;;;;;;20.60;16.30;;;;;;;9.58;75.23;102129.84;5073658;28;20035;-74
2022/03/14 07:00:25;;;;;;;19.67;16.05;;;;;;;9.55;75.24;102129.00;5072708;28;20021;-73
2022/03/14 07:02:50;;;;;;;19.35;16.15;;;;;;;9.52;75.34;102125.63;5073952;28;20028;-72
2022/03/14 07:05:20;;;;;;;22.17;16.02;;;;;;;9.55;75.33;102130.81;5052557;28;20388;-72
2022/03/14 07:07:46;;;;;;;17.58;15.73;;;;;;;9.56;74.92;102135.22;5077099;28;20528;-72
2022/03/14 07:10:14;;;;;;;20.40;15.57;;;;;;;9.54;74.80;102129.09;5090804;28;20032;-73
2022/03/14 07:12:49;;;;;;;20.25;15.68;;;;;;;9.55;75.17;102139.63;5086975;28;20402;-72
2022/03/14 07:15:17;;;;;;;19.45;16.30;;;;;;;9.60;74.53;102143.94;5110315;28;20031;-73
2022/03/14 07:17:43;;;;;;;17.52;15.32;;;;;;;9.58;74.33;102136.00;5078435;28;20463;-73
2022/03/14 07:20:10;;;;;;;21.75;15.82;;;;;;;9.60;74.39;102146.59;5099859;28;20024;-73
2022/03/14 07:22:49;;;;;;;18.60;15.00;;;;;;;9.64;74.19;102150.84;5110898;28;20520;-73
2022/03/14 07:25:26;;;;;;;25.35;16.25;;;;;;;9.65;73.91;102150.78;5108868;28;20444;-73
2022/03/14 07:27:59;;;;;;;22.58;15.52;;;;;;;9.65;74.00;102150.78;5092954;28;20423;-73
2022/03/14 07:30:25;;;;;;;19.15;14.98;;;;;;;9.63;74.13;102163.25;5110417;28;20032;-73
2022/03/14 07:32:52;;;;;;;23.15;16.00;;;;;;;9.64;73.83;102164.13;5110483;28;20039;-73
2022/03/14 07:35:18;;;;;;;24.30;16.45;;;;;;;9.72;74.32;102154.06;5092850;28;20023;-73
2022/03/14 07:37:44;;;;;;;19.10;14.52;;;;;;;9.72;74.09;102157.59;5102217;28;20382;-73
2022/03/14 07:40:14;;;;;;;22.92;16.27;;;;;;;9.70;74.28;102155.91;5104031;28;20107;-73
2022/03/14 07:42:47;;;;;;;20.23;14.80;;;;;;;9.77;73.57;102158.28;5082551;28;20383;-73
2022/03/14 07:45:15;;;;;;;20.85;15.40;;;;;;;9.76;73.87;102169.84;5113049;28;20024;-73
2022/03/14 07:47:41;;;;;;;20.98;15.57;;;;;;;9.76;73.73;102163.66;5100232;28;20479;-73
2022/03/14 07:50:09;;;;;;;21.88;15.82;;;;;;;9.85;73.10;102168.59;5094638;28;20046;-73
2022/03/14 07:52:35;;;;;;;20.88;14.70;;;;;;;9.84;73.61;102174.00;5079011;28;20379;-73
2022/03/14 07:55:00;;;;;;;21.70;15.73;;;;;;;9.83;73.17;102181.09;5093982;28;20110;-73
2022/03/14 07:57:27;;;;;;;22.25;16.00;;;;;;;9.82;73.78;102186.47;5077978;28;20127;-73
2022/03/14 07:59:53;;;;;;;20.90;16.05;;;;;;;9.80;73.67;102191.84;5059427;28;20056;-72
2022/03/14 08:02:18;;;;;;;22.65;15.75;;;;;;;9.82;73.90;102194.44;5095802;28;20071;-73
2022/03/14 08:04:44;;;;;;;26.05;16.95;;;;;;;9.85;72.89;102195.19;5095855;28;20040;-73
2022/03/14 08:07:10;;;;;;;24.83;17.80;;;;;;;9.91;73.17;102205.59;5077252;28;20078;-73
2022/03/14 08:09:35;;;;;;;26.48;17.88;;;;;;;9.82;73.83;102202.41;5067509;28;20422;-73
2022/03/14 08:12:03;;;;;;;21.00;16.85;;;;;;;9.80;73.77;102199.81;5113997;28;20036;-73
2022/03/14 08:14:29;;;;;;;22.25;16.70;;;;;;;9.82;73.27;102197.09;5078826;28;20027;-73
2022/03/14 08:16:55;;;;;;;24.25;16.48;;;;;;;9.92;72.79;102211.78;5073942;28;20043;-73
2022/03/14 08:19:20;;;;;;;22.98;18.25;;;;;;;9.84;73.18;102209.41;5100982;28;20119;-73
2022/03/14 08:21:47;;;;;;;23.55;17.83;;;;;;;9.89;73.21;102223.38;5096513;28;20028;-73
2022/03/14 08:24:13;;;;;;;24.63;16.70;;;;;;;9.91;73.19;102231.28;5097194;28;20035;-73
2022/03/14 08:26:39;;;;;;;21.10;16.27;;;;;;;9.93;73.26;102225.00;5093617;28;20063;-73
2022/03/14 08:29:05;;;;;;;24.85;16.10;;;;;;;9.98;73.29;102232.81;5080998;28;20042;-73
2022/03/14 08:31:33;;;;;;;23.77;15.25;;;;;;;10.02;73.44;102223.78;5106355;28;20028;-73
2022/03/14 08:34:00;;;;;;;21.73;15.50;;;;;;;10.10;72.38;102231.47;5104949;28;20027;-73
2022/03/14 08:36:26;;;;;;;22.98;15.27;;;;;;;10.08;72.00;102239.47;5094869;28;20277;-73
2022/03/14 08:38:51;;;;;;;19.02;15.25;;;;;;;10.03;72.08;102238.81;5095100;28;20130;-73
2022/03/14 08:41:17;;;;;;;21.48;15.68;;;;;;;10.15;72.01;102240.13;5057818;28;20024;-73
2022/03/14 08:43:44;;;;;;;20.50;14.32;;;;;;;10.04;71.88;102245.00;5076853;28;20040;-73
2022/03/14 08:46:10;;;;;;;25.33;15.00;;;;;;;10.10;72.71;102258.91;5092498;28;20024;-73
2022/03/14 08:48:35;;;;;;;23.95;13.98;;;;;;;10.17;71.21;102252.41;5102233;28;20028;-72
2022/03/14 08:51:06;;;;;;;21.42;14.48;;;;;;;10.13;72.16;102265.91;5109224;28;20048;-73
2022/03/14 08:53:31;;;;;;;22.80;13.70;;;;;;;10.13;71.18;102260.59;5092480;28;20031;-73
2022/03/14 08:56:00;;;;;;;17.95;13.48;;;;;;;10.14;71.75;102262.31;5093676;28;20389;-73
2022/03/14 08:58:26;;;;;;;20.13;14.38;;;;;;;10.18;71.41;102286.06;5087203;28;20024;-73
2022/03/14 09:00:51;;;;;;;18.88;13.75;;;;;;;10.22;71.35;102287.69;5093299;28;20402;-74
2022/03/14 09:03:17;;;;;;;20.50;13.30;;;;;;;10.26;71.20;102284.91;5105913;28;20019;-73
2022/03/14 09:05:43;;;;;;;20.67;12.73;;;;;;;10.37;70.85;102293.38;5098042;28;20036;-73
2022/03/14 09:08:08;;;;;;;17.17;13.10;;;;;;;10.48;70.34;102292.94;5078558;28;20073;-73
2022/03/14 09:10:36;;;;;;;17.08;12.30;;;;;;;10.61;70.87;102287.06;5105016;28;20039;-73
2022/03/14 09:13:03;;;;;;;20.60;12.60;;;;;;;10.86;69.86;102289.59;5085737;28;20035;-73
2022/03/14 09:15:31;;;;;;;14.93;12.00;;;;;;;11.11;69.60;102299.22;5090747;28;20016;-73
2022/03/14 09:18:03;;;;;;;18.70;11.98;;;;;;;11.17;68.88;102296.31;5059741;28;20502;-73
2022/03/14 09:20:29;;;;;;;17.13;11.50;;;;;;;11.23;68.14;102312.03;5097517;28;20027;-73
2022/03/14 09:22:55;;;;;;;15.45;12.50;;;;;;;11.29;67.87;102314.44;5078392;28;20020;-73
2022/03/14 09:25:22;;;;;;;17.92;11.73;;;;;;;11.40;68.04;102316.63;5111643;28;20498;-73
2022/03/14 09:27:49;;;;;;;17.30;11.88;;;;;;;11.42;66.93;102317.44;5084802;28;20024;-73
2022/03/14 09:30:17;;;;;;;16.67;11.68;;;;;;;11.56;67.23;102314.19;5094142;28;20023;-73
2022/03/14 09:32:42;;;;;;;13.70;10.35;;;;;;;11.65;65.83;102320.91;5109210;28;20054;-73
2022/03/14 09:35:09;;;;;;;14.38;10.45;;;;;;;11.62;65.65;102316.59;5074255;28;20478;-73
2022/03/14 09:37:37;;;;;;;18.77;9.85;;;;;;;11.56;64.96;102325.72;5111754;28;20420;-73
2022/03/14 09:40:10;;;;;;;21.17;11.25;;;;;;;11.49;65.81;102337.56;5101048;28;20027;-73
2022/03/14 09:42:38;;;;;;;16.65;10.23;;;;;;;11.51;65.92;102335.69;5106988;28;20110;-73
2022/03/14 09:45:07;;;;;;;17.58;10.60;;;;;;;11.57;64.77;102342.56;5074959;28;20060;-73
2022/03/14 09:47:40;;;;;;;16.45;9.95;;;;;;;11.60;64.67;102348.63;5097815;28;20015;-73
2022/03/14 09:50:09;;;;;;;17.20;11.23;;;;;;;11.45;64.77;102348.44;5096739;28;20027;-73
2022/03/14 09:52:39;;;;;;;15.30;10.18;;;;;;;11.46;64.74;102361.66;5099645;28;20521;-73
2022/03/14 09:55:09;;;;;;;14.77;10.02;;;;;;;11.48;65.31;102366.94;5092227;28;20056;-73
2022/03/14 09:57:37;;;;;;;18.08;10.70;;;;;;;11.50;65.18;102370.38;5101966;28;20098;-73
2022/03/14 10:00:10;;;;;;;14.40;11.15;;;;;;;11.49;64.85;102379.31;5097906;28;20520;-73
2022/03/14 10:02:36;;;;;;;17.45;11.60;;;;;;;11.41;64.89;102370.78;5092133;28;20027;-73
2022/03/14 10:05:06;;;;;;;14.43;10.43;;;;;;;11.32;65.48;102377.34;5076870;28;20035;-73
2022/03/14 10:07:34;;;;;;;15.85;10.15;;;;;;;11.33;65.65;102387.09;5093182;28;20067;-73
2022/03/14 10:10:00;;;;;;;13.70;10.27;;;;;;;11.25;65.69;102391.88;5076046;28;20043;-72
2022/03/14 10:12:26;;;;;;;18.55;10.95;;;;;;;11.28;66.13;102402.41;5085486;28;20406;-72
2022/03/14 10:14:52;;;;;;;17.10;9.80;;;;;;;11.38;65.87;102398.41;5085659;28;20038;-72
2022/03/14 10:17:17;;;;;;;15.32;8.80;;;;;;;11.48;64.69;102394.44;5074236;28;20440;-73
2022/03/14 10:19:54;;;;;;;13.13;9.02;;;;;;;11.59;65.20;102394.00;5103162;28;20050;-72
2022/03/14 10:22:20;;;;;;;12.32;9.07;;;;;;;11.60;63.40;102395.72;5077621;28;20055;-72
2022/03/14 10:24:48;;;;;;;17.58;9.88;;;;;;;11.53;63.41;102395.13;5078908;28;20028;-72
2022/03/14 10:27:18;;;;;;;11.07;8.43;;;;;;;11.55;63.95;102408.38;5104053;28;20096;-73
2022/03/14 10:29:46;;;;;;;;;;;;;;;11.65;63.27;102411.50;5102725;28;20119;-72
2022/03/14 10:35:09;;;;;;;11.85;9.57;;;;;;;11.75;62.72;102416.38;5088247;28;20044;-72
2022/03/14 10:37:35;;;;;;;13.95;9.60;;;;;;;11.95;63.17;102420.03;5066039;28;20474;-73
2022/03/14 10:40:05;;;;;;;17.77;9.95;;;;;;;11.98;61.98;102422.56;5083181;28;20076;-73
2022/03/14 10:42:42;;;;;;;11.07;9.85;;;;;;;12.01;62.00;102425.09;5111746;28;20032;-73
2022/03/14 10:45:18;;;;;;;10.63;8.63;;;;;;;12.02;61.60;102425.03;5111668;28;20069;-73
2022/03/14 10:47:45;;;;;;;13.57;8.50;;;;;;;12.12;61.89;102440.63;5112173;28;20016;-73
2022/03/14 10:50:34;;;;;;;12.93;8.50;;;;;;;12.04;62.67;102446.31;5111911;28;20027;-72
2022/03/14 10:53:10;;;;;;;13.00;8.07;;;;;;;11.94;61.58;102443.19;5093812;28;20118;-72
2022/03/14 10:55:40;;;;;;;13.00;9.00;;;;;;;11.84;61.89;102449.78;5111806;28;20028;-72
2022/03/14 10:58:21;;;;;;;14.40;8.85;;;;;;;11.68;62.74;102454.06;5112111;28;20375;-72
2022/03/14 11:01:02;;;;;;;11.07;8.70;;;;;;;11.64;62.48;102461.28;5093423;28;20024;-71
2022/03/14 11:03:30;;;;;;;11.57;8.65;;;;;;;11.58;62.99;102461.53;5093747;28;20055;-72
2022/03/14 11:05:58;;;;;;;13.85;8.60;;;;;;;12.00;62.07;102455.34;5111728;28;20425;-72
2022/03/14 11:08:43;;;;;;;12.93;7.95;;;;;;;12.55;60.29;102444.91;5111843;28;20052;-72
2022/03/14 11:11:36;;;;;;;12.48;7.20;;;;;;;13.30;58.72;102454.75;5093335;28;20058;-72
2022/03/14 11:14:12;;;;;;;10.27;6.40;;;;;;;14.00;56.36;102455.69;5108231;28;20046;-72
2022/03/14 11:16:38;;;;;;;11.20;6.63;;;;;;;14.44;53.99;102441.78;5111392;28;20035;-72
2022/03/14 11:19:04;;;;;;;11.30;6.63;;;;;;;14.91;52.51;102457.09;5094862;28;20462;-72
2022/03/14 11:21:34;;;;;;;9.25;5.47;;;;;;;15.07;50.50;102454.41;5115903;28;20025;-72
2022/03/14 11:24:01;;;;;;;9.45;6.00;;;;;;;15.23;49.39;102454.41;5115636;28;20585;-73
2022/03/14 11:26:27;;;;;;;7.47;4.85;;;;;;;15.78;47.66;102436.97;5115423;28;20027;-73